createdAt,value
2022-10-22T00:00:11.398Z,69.69
2022-10-22T00:02:38.710Z,69.41
2022-10-22T00:05:06.201Z,69.11
2022-10-22T00:07:33.453Z,68.84
2022-10-22T00:10:00.524Z,68.70
2022-10-22T00:12:27.754Z,69.18
2022-10-22T00:14:54.612Z,70.50
2022-10-22T00:17:21.723Z,70.05
2022-10-22T00:19:48.670Z,70.91
2022-10-22T00:22:15.871Z,70.53
2022-10-22T00:24:43.320Z,70.24
2022-10-22T00:27:12.414Z,70.15
2022-10-22T00:29:39.430Z,71.13
2022-10-22T00:32:06.888Z,70.92
2022-10-22T00:34:33.896Z,71.26
2022-10-22T00:37:01.252Z,70.98
2022-10-22T00:39:28.886Z,71.32
2022-10-22T00:41:57.255Z,71.21
2022-10-22T00:45:01.211Z,70.78
2022-10-22T00:47:31.936Z,70.86
2022-10-22T00:50:00.394Z,70.52
2022-10-22T00:52:27.694Z,70.68
2022-10-22T00:54:54.956Z,70.43
2022-10-22T00:57:22.897Z,70.52
2022-10-22T00:59:50.269Z,70.94
2022-10-22T01:02:17.491Z,71.85
2022-10-22T01:04:45.371Z,70.98
2022-10-22T01:07:21.362Z,70.35
2022-10-22T01:10:23.692Z,70.11
2022-10-22T01:12:50.771Z,70.35
2022-10-22T01:16:03.630Z,70.00
2022-10-22T01:18:55.538Z,71.16
2022-10-22T01:21:31.140Z,71.01
2022-10-22T01:24:49.816Z,71.21
2022-10-22T01:27:40.060Z,70.95
2022-10-22T01:30:09.316Z,70.80
2022-10-22T01:33:01.888Z,70.90
2022-10-22T01:35:35.875Z,70.84
2022-10-22T01:38:07.654Z,71.38
2022-10-22T01:40:35.920Z,71.48
2022-10-22T01:43:06.072Z,70.86
2022-10-22T01:45:47.257Z,71.53
2022-10-22T01:48:35.633Z,71.09
2022-10-22T01:51:34.351Z,70.31
2022-10-22T01:54:27.773Z,70.53
2022-10-22T01:56:54.603Z,70.88
2022-10-22T01:59:52.251Z,70.63
2022-10-22T02:02:25.037Z,70.35
2022-10-22T02:05:02.252Z,71.10
2022-10-22T02:07:33.198Z,70.75
2022-10-22T02:10:01.007Z,70.37
2022-10-22T02:12:31.332Z,70.78
2022-10-22T02:15:00.883Z,70.54
2022-10-22T02:17:32.216Z,70.23
2022-10-22T02:20:09.013Z,70.73
2022-10-22T02:22:36.075Z,71.14
2022-10-22T02:25:04.365Z,70.59
2022-10-22T02:27:45.578Z,70.61
2022-10-22T02:30:18.957Z,71.06
2022-10-22T02:33:03.958Z,70.65
2022-10-22T02:35:31.888Z,70.84
2022-10-22T02:37:59.919Z,71.15
2022-10-22T02:40:28.885Z,71.11
2022-10-22T02:42:55.694Z,70.77
2022-10-22T02:45:22.951Z,70.68
2022-10-22T02:47:50.513Z,71.07
2022-10-22T02:50:17.733Z,70.87
2022-10-22T02:52:44.519Z,70.94
2022-10-22T02:55:11.675Z,70.30
2022-10-22T02:57:38.915Z,70.41
2022-10-22T03:00:07.918Z,70.93
2022-10-22T03:02:35.338Z,71.39
2022-10-22T03:05:02.478Z,72.15
2022-10-22T03:07:29.257Z,71.56
2022-10-22T03:09:56.129Z,71.05
2022-10-22T03:12:23.013Z,71.10
2022-10-22T03:14:49.766Z,70.80
2022-10-22T03:17:16.853Z,70.44
2022-10-22T03:19:43.695Z,70.95
2022-10-22T03:22:15.431Z,71.11
2022-10-22T03:24:46.474Z,71.22
2022-10-22T03:27:16.962Z,72.00
2022-10-22T03:29:44.431Z,72.03
2022-10-22T03:32:11.719Z,71.66
2022-10-22T03:34:38.474Z,72.04
2022-10-22T03:37:05.216Z,72.18
2022-10-22T03:39:34.671Z,71.73
2022-10-22T03:42:02.339Z,71.58
2022-10-22T03:44:30.538Z,71.02
2022-10-22T03:47:01.632Z,71.26
2022-10-22T03:49:29.572Z,71.52
2022-10-22T03:51:56.457Z,71.33
2022-10-22T03:54:23.715Z,71.87
2022-10-22T03:56:50.509Z,71.65
2022-10-22T03:59:17.324Z,72.01
2022-10-22T04:01:44.250Z,72.36
2022-10-22T04:04:10.937Z,73.43
2022-10-22T04:06:37.635Z,73.50
2022-10-22T04:09:04.995Z,73.99
2022-10-22T04:11:31.960Z,73.72
2022-10-22T04:13:58.775Z,73.68
2022-10-22T04:16:28.705Z,73.88
2022-10-22T04:18:58.154Z,73.72
2022-10-22T04:21:25.016Z,73.97
2022-10-22T04:23:53.117Z,74.27
2022-10-22T04:26:20.775Z,73.73
2022-10-22T04:28:49.078Z,73.71
2022-10-22T04:31:19.606Z,74.01
2022-10-22T04:33:46.877Z,74.01
2022-10-22T04:36:18.615Z,74.81
2022-10-22T04:38:47.762Z,74.12
2022-10-22T04:41:19.793Z,74.36
2022-10-22T04:43:47.292Z,74.36
2022-10-22T04:46:16.537Z,73.61
2022-10-22T04:48:44.909Z,74.50
2022-10-22T04:51:17.781Z,74.32
2022-10-22T04:53:45.910Z,73.90
2022-10-22T04:56:19.959Z,73.92
2022-10-22T04:58:48.716Z,74.11
2022-10-22T05:01:41.623Z,73.32
2022-10-22T05:04:13.716Z,72.95
2022-10-22T05:06:40.892Z,73.01
2022-10-22T05:09:14.187Z,73.70
2022-10-22T05:11:43.333Z,73.71
2022-10-22T05:14:11.277Z,74.11
2022-10-22T05:16:38.743Z,74.46
2022-10-22T05:19:06.674Z,74.67
2022-10-22T05:21:33.964Z,74.40
2022-10-22T05:24:01.284Z,74.28
2022-10-22T05:26:29.274Z,74.27
2022-10-22T05:28:56.322Z,73.91
2022-10-22T05:31:23.232Z,73.98
2022-10-22T05:33:50.153Z,74.28
2022-10-22T05:36:19.955Z,74.09
2022-10-22T05:38:47.321Z,73.92
2022-10-22T05:41:22.674Z,73.82
2022-10-22T05:43:50.236Z,73.66
2022-10-22T05:46:23.138Z,73.23
2022-10-22T05:48:55.167Z,72.86
2022-10-22T05:51:23.332Z,73.19
2022-10-22T05:53:59.533Z,72.78
2022-10-22T05:56:28.000Z,72.39
2022-10-22T05:58:55.241Z,73.44
2022-10-22T06:01:33.597Z,72.82
2022-10-22T06:04:03.171Z,72.81
2022-10-22T06:06:34.457Z,72.00
2022-10-22T06:09:18.597Z,71.31
2022-10-22T06:11:46.166Z,70.16
2022-10-22T06:14:13.484Z,69.64
2022-10-22T06:16:40.485Z,68.44
2022-10-22T06:19:08.333Z,69.17
2022-10-22T06:21:35.592Z,69.70
2022-10-22T06:24:02.490Z,71.10
2022-10-22T06:26:30.294Z,69.96
2022-10-22T06:28:57.658Z,69.33
2022-10-22T06:31:25.795Z,69.05
2022-10-22T06:33:52.791Z,69.41
2022-10-22T06:36:22.281Z,69.13
2022-10-22T06:38:52.912Z,68.97
2022-10-22T06:41:22.162Z,69.33
2022-10-22T06:43:51.430Z,68.94
2022-10-22T06:46:21.814Z,67.95
2022-10-22T06:49:12.155Z,67.07
2022-10-22T06:51:39.179Z,67.80
2022-10-22T06:54:06.070Z,67.18
2022-10-22T06:56:32.926Z,66.67
2022-10-22T06:58:59.976Z,65.81
2022-10-22T07:01:31.322Z,65.05
2022-10-22T07:03:58.412Z,64.66
2022-10-22T07:06:26.399Z,62.82
2022-10-22T07:08:54.747Z,64.22
2022-10-22T07:11:24.932Z,63.64
2022-10-22T07:13:54.517Z,63.42
2022-10-22T07:16:21.645Z,62.72
2022-10-22T07:18:49.046Z,63.16
2022-10-22T07:21:18.657Z,63.78
2022-10-22T07:23:45.573Z,62.70
2022-10-22T07:26:14.246Z,61.95
2022-10-22T07:28:41.553Z,60.35
2022-10-22T07:31:10.358Z,61.02
2022-10-22T07:33:38.320Z,60.90
2022-10-22T07:36:08.113Z,59.84
2022-10-22T07:38:35.958Z,59.78
2022-10-22T07:41:03.124Z,59.11
2022-10-22T07:43:30.356Z,59.29
2022-10-22T07:45:57.082Z,57.61
2022-10-22T07:48:25.036Z,57.30
2022-10-22T07:50:52.578Z,56.66
2022-10-22T07:53:19.436Z,56.94
2022-10-22T07:55:49.084Z,55.04
2022-10-22T07:58:16.916Z,55.35
2022-10-22T08:00:43.797Z,55.70
2022-10-22T08:03:14.211Z,58.28
2022-10-22T08:05:41.533Z,56.79
2022-10-22T08:08:08.273Z,53.61
2022-10-22T08:10:34.991Z,51.95
2022-10-22T08:13:02.162Z,51.57
2022-10-22T08:15:29.434Z,52.77
2022-10-22T08:17:56.365Z,52.32
2022-10-22T08:20:23.486Z,52.21
2022-10-22T08:22:50.272Z,51.46
2022-10-22T08:25:17.282Z,49.96
2022-10-22T08:27:45.973Z,50.76
2022-10-22T08:30:13.894Z,50.91
2022-10-22T08:32:41.555Z,51.49
2022-10-22T08:35:08.984Z,51.89
2022-10-22T08:37:36.272Z,52.08
2022-10-22T08:40:04.929Z,51.03
2022-10-22T08:43:02.572Z,51.53
2022-10-22T08:45:57.645Z,49.30
2022-10-22T08:48:41.853Z,48.15
2022-10-22T08:51:13.171Z,48.77
2022-10-22T08:53:51.476Z,47.87
2022-10-22T08:56:18.638Z,45.69
2022-10-22T08:58:58.873Z,47.55
2022-10-22T09:01:35.393Z,46.07
2022-10-22T09:04:17.372Z,48.02
2022-10-22T09:06:44.112Z,46.94
2022-10-22T09:09:15.862Z,46.70
2022-10-22T09:11:47.342Z,45.07
2022-10-22T09:14:22.653Z,45.38
2022-10-22T09:17:02.966Z,43.99
2022-10-22T09:19:38.772Z,43.91
2022-10-22T09:22:32.854Z,46.41
2022-10-22T09:25:12.918Z,44.96
2022-10-22T09:27:40.324Z,45.68
2022-10-22T09:30:11.590Z,43.48
2022-10-22T09:32:38.435Z,42.38
2022-10-22T09:35:11.297Z,42.96
2022-10-22T09:37:49.031Z,45.36
2022-10-22T09:40:17.073Z,44.56
2022-10-22T09:42:45.796Z,43.35
2022-10-22T09:45:21.117Z,42.38
2022-10-22T09:48:03.739Z,41.54
2022-10-22T09:50:45.813Z,40.49
2022-10-22T09:53:22.418Z,41.24
2022-10-22T09:58:23.591Z,39.79
2022-10-22T10:01:00.637Z,40.46
2022-10-22T10:03:31.679Z,39.50
2022-10-22T10:06:03.276Z,39.31
2022-10-22T10:08:33.737Z,39.55
2022-10-22T10:11:06.755Z,40.15
2022-10-22T10:13:54.591Z,40.95
2022-10-22T10:17:03.113Z,39.80
2022-10-22T10:19:51.255Z,40.29
2022-10-22T10:22:29.996Z,41.53
2022-10-22T10:25:27.729Z,39.92
2022-10-22T10:28:07.917Z,39.25
2022-10-22T10:30:43.935Z,38.00
2022-10-22T10:33:21.894Z,38.97
2022-10-22T10:36:10.012Z,40.41
2022-10-22T10:39:06.754Z,40.36
2022-10-22T10:41:59.038Z,40.02
2022-10-22T10:44:56.807Z,39.40
2022-10-22T10:47:39.221Z,39.10
2022-10-22T10:50:35.315Z,36.95
2022-10-22T10:53:28.236Z,36.50
2022-10-22T10:56:25.233Z,36.31
2022-10-22T10:59:12.437Z,35.97
2022-10-22T11:01:57.830Z,35.52
2022-10-22T11:04:34.097Z,35.91
2022-10-22T11:07:11.428Z,35.11
2022-10-22T11:10:02.892Z,35.16
2022-10-22T11:12:36.139Z,36.58
2022-10-22T11:15:13.818Z,36.95
2022-10-22T11:17:45.695Z,36.94
2022-10-22T11:20:35.518Z,36.18
2022-10-22T11:23:24.760Z,35.53
2022-10-22T11:25:52.115Z,36.66
2022-10-22T11:28:43.630Z,35.44
2022-10-22T11:31:14.801Z,34.57
2022-10-22T11:33:57.340Z,34.65
2022-10-22T11:36:33.403Z,34.20
2022-10-22T11:39:03.133Z,33.32
2022-10-22T11:41:32.914Z,32.84
2022-10-22T11:44:20.957Z,32.91
2022-10-22T11:46:53.458Z,33.51
2022-10-22T11:49:25.514Z,33.46
2022-10-22T11:52:05.474Z,32.86
2022-10-22T11:54:32.734Z,32.94
2022-10-22T11:57:21.693Z,33.57
2022-10-22T11:59:52.096Z,33.60
2022-10-22T12:02:37.586Z,33.85
2022-10-22T12:05:22.730Z,33.93
2022-10-22T12:08:01.395Z,33.06
2022-10-22T12:10:35.531Z,32.12
2022-10-22T12:13:12.238Z,33.55
2022-10-22T12:15:49.273Z,33.37
2022-10-22T12:18:16.967Z,35.23
2022-10-22T12:20:44.071Z,33.35
2022-10-22T12:23:12.856Z,33.57
2022-10-22T12:25:39.714Z,33.37
2022-10-22T12:28:12.053Z,32.90
2022-10-22T12:30:39.396Z,32.49
2022-10-22T12:33:08.271Z,32.43
2022-10-22T12:35:43.990Z,33.58
2022-10-22T12:38:19.891Z,34.63
2022-10-22T12:40:48.902Z,33.34
2022-10-22T12:43:37.357Z,33.34
2022-10-22T12:46:04.619Z,33.35
2022-10-22T12:48:36.207Z,34.84
2022-10-22T12:51:05.337Z,33.60
2022-10-22T12:53:35.647Z,34.42
2022-10-22T12:56:05.394Z,34.16
2022-10-22T12:58:59.069Z,34.42
2022-10-22T13:01:29.477Z,34.28
2022-10-22T13:04:27.523Z,33.72
2022-10-22T13:07:19.901Z,33.28
2022-10-22T13:10:15.766Z,33.60
2022-10-22T13:12:48.951Z,34.23
2022-10-22T13:15:29.716Z,33.82
2022-10-22T13:18:07.791Z,33.96
2022-10-22T13:20:34.958Z,33.84
2022-10-22T13:23:04.112Z,34.00
2022-10-22T13:25:33.579Z,34.51
2022-10-22T13:28:18.652Z,33.96
2022-10-22T13:31:08.483Z,34.60
2022-10-22T13:33:41.212Z,34.30
2022-10-22T13:36:14.100Z,34.42
2022-10-22T13:38:41.173Z,35.20
2022-10-22T13:41:27.872Z,35.73
2022-10-22T13:43:55.370Z,36.47
2022-10-22T13:46:23.681Z,36.80
2022-10-22T13:48:53.133Z,37.07
2022-10-22T13:51:41.572Z,37.60
2022-10-22T13:54:21.416Z,37.91
2022-10-22T13:56:48.396Z,38.88
2022-10-22T13:59:17.239Z,39.02
2022-10-22T14:01:47.120Z,38.84
2022-10-22T14:04:14.231Z,38.86
2022-10-22T14:06:41.056Z,38.90
2022-10-22T14:09:14.308Z,37.40
2022-10-22T14:11:41.230Z,37.60
2022-10-22T14:14:07.954Z,37.43
2022-10-22T14:16:36.363Z,36.65
2022-10-22T14:19:07.809Z,37.20
2022-10-22T14:21:37.393Z,37.35
2022-10-22T14:24:06.180Z,36.97
2022-10-22T14:26:35.371Z,36.19
2022-10-22T14:29:11.353Z,36.81
2022-10-22T14:31:51.679Z,35.47
2022-10-22T14:34:21.792Z,35.97
2022-10-22T14:36:48.670Z,36.03
2022-10-22T14:39:15.612Z,36.70
2022-10-22T14:41:46.670Z,36.56
2022-10-22T14:44:17.765Z,36.40
2022-10-22T14:46:47.894Z,37.17
2022-10-22T14:49:14.754Z,37.55
2022-10-22T14:51:41.794Z,38.13
2022-10-22T14:54:08.880Z,38.85
2022-10-22T14:59:02.434Z,40.11
2022-10-22T15:01:29.397Z,39.63
2022-10-22T15:03:56.272Z,39.94
2022-10-22T15:06:23.095Z,39.95
2022-10-22T15:08:50.011Z,40.73
2022-10-22T15:11:17.517Z,42.19
2022-10-22T15:13:44.254Z,43.09
2022-10-22T15:16:15.034Z,43.69
2022-10-22T15:18:42.255Z,44.43
2022-10-22T15:21:15.816Z,45.17
2022-10-22T15:23:42.893Z,45.70
2022-10-22T15:26:10.876Z,45.79
2022-10-22T15:28:38.989Z,46.29
2022-10-22T15:31:07.258Z,46.73
2022-10-22T15:33:34.483Z,46.79
2022-10-22T15:36:14.155Z,47.31
2022-10-22T15:38:40.975Z,47.90
2022-10-22T15:41:08.870Z,47.79
2022-10-22T15:43:36.257Z,47.89
2022-10-22T15:46:18.175Z,48.36
2022-10-22T15:48:45.401Z,48.99
2022-10-22T15:51:16.294Z,48.94
2022-10-22T15:53:44.054Z,49.42
2022-10-22T15:56:11.733Z,50.05
2022-10-22T15:58:39.997Z,50.40
2022-10-22T16:01:11.692Z,50.99
2022-10-22T16:03:39.071Z,51.22
2022-10-22T16:06:07.452Z,51.18
2022-10-22T16:08:34.467Z,51.52
2022-10-22T16:11:01.597Z,51.41
2022-10-22T16:13:28.389Z,52.21
2022-10-22T16:15:55.365Z,51.18
2022-10-22T16:18:22.595Z,51.15
2022-10-22T16:20:49.597Z,51.46
2022-10-22T16:23:16.409Z,51.76
2022-10-22T16:25:43.715Z,51.70
2022-10-22T16:28:11.717Z,52.30
2022-10-22T16:30:39.051Z,52.61
2022-10-22T16:33:07.495Z,52.87
2022-10-22T16:35:34.474Z,53.26
2022-10-22T16:38:01.254Z,53.04
2022-10-22T16:40:28.406Z,53.29
2022-10-22T16:42:55.136Z,53.60
2022-10-22T16:45:21.933Z,53.73
2022-10-22T16:47:49.294Z,54.40
2022-10-22T16:50:16.313Z,54.24
2022-10-22T16:52:43.078Z,53.76
2022-10-22T16:55:10.272Z,53.68
2022-10-22T16:57:37.194Z,54.29
2022-10-22T17:00:05.937Z,55.00
2022-10-22T17:02:32.957Z,55.19
2022-10-22T17:04:59.695Z,55.50
2022-10-22T17:07:26.406Z,54.92
2022-10-22T17:09:53.296Z,54.71
2022-10-22T17:12:20.118Z,55.41
2022-10-22T17:14:46.998Z,55.26
2022-10-22T17:17:13.931Z,55.08
2022-10-22T17:19:40.632Z,55.73
2022-10-22T17:22:07.412Z,55.08
2022-10-22T17:24:34.312Z,55.77
2022-10-22T17:27:01.420Z,55.70
2022-10-22T17:29:28.277Z,55.34
2022-10-22T17:31:55.070Z,56.18
2022-10-22T17:34:21.877Z,56.66
2022-10-22T17:36:48.635Z,57.65
2022-10-22T17:39:18.079Z,57.93
2022-10-22T17:41:45.174Z,57.84
2022-10-22T17:44:13.538Z,58.79
2022-10-22T17:46:40.878Z,58.21
2022-10-22T17:49:15.292Z,58.81
2022-10-22T17:51:42.353Z,58.59
2022-10-22T17:54:10.236Z,58.61
2022-10-22T17:56:37.336Z,59.24
2022-10-22T17:59:04.505Z,59.52
2022-10-22T18:01:34.581Z,58.78
2022-10-22T18:04:07.399Z,58.59
2022-10-22T18:06:37.164Z,58.01
2022-10-22T18:09:10.725Z,58.93
2022-10-22T18:11:39.255Z,60.12
2022-10-22T18:14:06.402Z,60.58
2022-10-22T18:16:33.325Z,60.45
2022-10-22T18:19:00.970Z,59.47
2022-10-22T18:21:30.209Z,59.22
2022-10-22T18:23:59.155Z,60.05
2022-10-22T18:26:27.047Z,59.42
2022-10-22T18:28:54.766Z,60.15
2022-10-22T18:31:23.938Z,61.48
2022-10-22T18:33:51.017Z,60.58
2022-10-22T18:36:21.339Z,61.39
2022-10-22T18:38:56.419Z,61.07
2022-10-22T18:41:23.894Z,61.41
2022-10-22T18:43:56.174Z,61.75
2022-10-22T18:46:23.937Z,61.62
2022-10-22T18:48:53.368Z,60.71
2022-10-22T18:51:20.940Z,60.70
2022-10-22T18:54:04.522Z,61.07
2022-10-22T18:56:39.755Z,61.06
2022-10-22T18:59:06.754Z,60.77
2022-10-22T19:01:33.633Z,60.74
2022-10-22T19:04:00.577Z,61.23
2022-10-22T19:06:33.320Z,61.84
2022-10-22T19:09:04.487Z,62.45
2022-10-22T19:11:32.084Z,62.03
2022-10-22T19:13:58.874Z,61.72
2022-10-22T19:16:26.257Z,60.96
2022-10-22T19:18:58.878Z,62.19
2022-10-22T19:21:25.757Z,62.01
2022-10-22T19:23:55.550Z,61.61
2022-10-22T19:26:22.376Z,61.96
2022-10-22T19:28:49.257Z,62.19
2022-10-22T19:31:20.159Z,62.14
2022-10-22T19:33:47.326Z,62.63
2022-10-22T19:36:16.879Z,62.61
2022-10-22T19:38:48.933Z,62.42
2022-10-22T19:41:19.070Z,62.37
2022-10-22T19:43:49.393Z,63.31
2022-10-22T19:46:17.799Z,63.80
2022-10-22T19:51:20.285Z,64.14
2022-10-22T19:53:48.612Z,64.09
2022-10-22T19:56:18.997Z,63.75
2022-10-22T19:58:46.575Z,63.19
2022-10-22T20:01:16.118Z,63.37
2022-10-22T20:03:43.040Z,62.91
2022-10-22T20:06:12.215Z,63.75
2022-10-22T20:08:39.371Z,65.04
2022-10-22T20:11:11.830Z,65.24
2022-10-22T20:16:06.963Z,65.27
2022-10-22T20:18:34.275Z,64.49
2022-10-22T20:21:08.779Z,64.68
2022-10-22T20:23:35.593Z,64.59
2022-10-22T20:26:02.359Z,64.19
2022-10-22T20:28:29.455Z,64.92
2022-10-22T20:30:56.432Z,65.95
2022-10-22T20:33:23.526Z,66.16
2022-10-22T20:36:05.837Z,65.70
2022-10-22T20:38:33.190Z,65.29
2022-10-22T20:41:02.361Z,65.02
2022-10-22T20:43:29.258Z,65.03
2022-10-22T20:45:56.249Z,64.72
2022-10-22T20:48:24.376Z,64.64
2022-10-22T20:50:51.196Z,65.42
2022-10-22T20:53:17.994Z,65.35
2022-10-22T20:55:45.094Z,66.33
2022-10-22T20:58:11.998Z,65.79
2022-10-22T21:00:38.887Z,66.41
2022-10-22T21:03:06.712Z,65.56
2022-10-22T21:05:33.889Z,66.24
2022-10-22T21:08:00.837Z,65.91
2022-10-22T21:10:32.387Z,65.19
2022-10-22T21:13:00.125Z,65.00
2022-10-22T21:15:27.153Z,65.66
2022-10-22T21:17:54.242Z,65.41
2022-10-22T21:20:23.889Z,65.63
2022-10-22T21:22:51.619Z,64.83
2022-10-22T21:25:18.492Z,65.41
2022-10-22T21:27:45.477Z,65.50
2022-10-22T21:30:13.212Z,65.44
2022-10-22T21:32:40.269Z,67.00
2022-10-22T21:35:07.859Z,66.31
2022-10-22T21:37:34.655Z,66.35
2022-10-22T21:40:02.270Z,66.46
2022-10-22T21:42:29.353Z,67.92
2022-10-22T21:44:56.147Z,68.22
2022-10-22T21:47:23.243Z,67.52
2022-10-22T21:49:50.210Z,66.62
2022-10-22T21:52:16.912Z,66.65
2022-10-22T21:54:43.957Z,66.96
2022-10-22T21:57:10.757Z,66.38
2022-10-22T21:59:37.514Z,66.19
2022-10-22T22:02:05.929Z,66.22
2022-10-22T22:04:33.405Z,66.63
2022-10-22T22:07:00.250Z,66.80
2022-10-22T22:09:27.165Z,66.91
2022-10-22T22:11:53.949Z,66.85
2022-10-22T22:14:20.726Z,66.67
2022-10-22T22:16:47.596Z,67.06
2022-10-22T22:19:14.516Z,67.10
2022-10-22T22:21:41.873Z,68.12
2022-10-22T22:24:11.513Z,67.96
2022-10-22T22:26:38.438Z,68.04
2022-10-22T22:29:05.954Z,68.01
2022-10-22T22:31:34.413Z,68.59
2022-10-22T22:34:05.432Z,68.15
2022-10-22T22:36:35.216Z,68.56
2022-10-22T22:39:03.481Z,68.74
2022-10-22T22:41:30.639Z,68.93
2022-10-22T22:43:57.558Z,68.43
2022-10-22T22:46:24.314Z,67.85
2022-10-22T22:48:51.898Z,68.27
2022-10-22T22:51:19.014Z,68.35
2022-10-22T22:53:46.271Z,68.83
2022-10-22T22:56:14.850Z,68.92
2022-10-22T22:58:42.356Z,68.57
2022-10-22T23:01:30.877Z,68.18
2022-10-22T23:04:00.052Z,68.26
2022-10-22T23:06:29.798Z,68.29
2022-10-22T23:08:57.962Z,68.32
2022-10-22T23:11:26.230Z,68.41
2022-10-22T23:13:56.197Z,68.30
2022-10-22T23:16:25.772Z,68.94
2022-10-22T23:18:53.833Z,68.93
2022-10-22T23:21:26.517Z,68.81
2022-10-22T23:23:58.793Z,69.18
2022-10-22T23:26:28.632Z,70.11
2022-10-22T23:28:59.598Z,69.77
2022-10-22T23:31:26.996Z,69.22
2022-10-22T23:33:53.932Z,69.20
2022-10-22T23:36:20.931Z,68.69
2022-10-22T23:38:47.996Z,68.70
2022-10-22T23:41:15.123Z,69.18
2022-10-22T23:43:41.969Z,68.98
2022-10-22T23:46:11.678Z,69.00
2022-10-22T23:48:39.430Z,68.50
2022-10-22T23:51:07.140Z,67.84
2022-10-22T23:53:34.157Z,67.93
2022-10-22T23:56:10.291Z,68.04
2022-10-22T23:58:37.513Z,68.79
